Time;durP1;ratioP1;P1;durP2;ratioP2;P2;SDS_P1;SDS_P2;PMS_P1;PMS_P2;Temp;Humidity;BMP_temperature;BMP_pressure;BME280_temperature;BME280_humidity;BME280_pressure;Samples;Min_cycle;Max_cycle;Signal;HPM_P1;HPM_P2
2021/01/19 00:02:13;;;;;;;1.63;1.33;;;8.00;79.70;;;;;;5076317;28;20044;-46
2021/01/19 00:04:39;;;;;;;1.70;1.20;;;8.00;79.70;;;;;;5076174;28;20044;-45
2021/01/19 00:07:05;;;;;;;2.20;1.33;;;8.00;79.70;;;;;;5075557;28;20052;-47
2021/01/19 00:09:30;;;;;;;2.20;1.30;;;8.00;79.70;;;;;;5076155;28;20048;-48
2021/01/19 00:11:56;;;;;;;1.83;1.38;;;8.00;79.70;;;;;;5075942;28;20056;-45
2021/01/19 00:14:22;;;;;;;1.50;1.40;;;8.00;79.80;;;;;;5075997;28;20051;-45
2021/01/19 00:16:48;;;;;;;2.05;1.60;;;8.00;79.70;;;;;;5076042;28;20053;-44
2021/01/19 00:19:13;;;;;;;1.40;1.27;;;8.00;79.70;;;;;;5075712;28;20550;-46
2021/01/19 00:21:39;;;;;;;2.75;1.30;;;8.00;79.80;;;;;;5075293;28;20488;-44
2021/01/19 00:24:05;;;;;;;2.28;1.63;;;8.00;79.80;;;;;;5075966;28;20041;-45
2021/01/19 00:26:31;;;;;;;3.05;1.40;;;8.00;79.80;;;;;;5075813;28;20105;-48
2021/01/19 00:28:56;;;;;;;1.30;1.20;;;8.00;79.70;;;;;;5075635;28;20052;-46
2021/01/19 00:31:22;;;;;;;1.70;1.40;;;8.00;79.70;;;;;;5075661;28;20045;-44
2021/01/19 00:33:48;;;;;;;1.85;1.30;;;8.00;79.80;;;;;;5095102;28;20083;-44
2021/01/19 00:36:14;;;;;;;1.50;1.40;;;8.00;79.80;;;;;;5095472;28;20048;-47
2021/01/19 00:38:40;;;;;;;1.40;1.25;;;8.00;79.80;;;;;;5095492;28;20048;-46
2021/01/19 00:41:05;;;;;;;1.80;1.50;;;8.00;79.80;;;;;;5095822;28;20101;-52
2021/01/19 00:43:31;;;;;;;2.22;1.60;;;8.00;79.80;;;;;;5096197;28;20105;-47
2021/01/19 00:45:57;;;;;;;1.50;1.30;;;8.00;79.80;;;;;;5076712;28;20056;-49
2021/01/19 00:48:22;;;;;;;1.88;1.42;;;8.00;79.80;;;;;;5095122;28;20131;-46
2021/01/19 00:50:48;;;;;;;2.05;1.25;;;8.00;80.10;;;;;;5095417;28;20044;-47
2021/01/19 00:53:14;;;;;;;2.22;1.30;;;8.00;79.80;;;;;;5095310;28;20372;-49
2021/01/19 00:55:39;;;;;;;1.60;1.30;;;8.00;79.80;;;;;;5095599;28;20491;-52
2021/01/19 00:58:06;;;;;;;1.90;1.65;;;8.00;79.80;;;;;;5095441;28;20047;-49
2021/01/19 01:00:32;;;;;;;1.70;1.40;;;8.00;79.80;;;;;;5095434;28;20117;-48
2021/01/19 01:02:57;;;;;;;1.27;1.17;;;8.00;79.80;;;;;;5095320;28;20052;-45
2021/01/19 01:05:23;;;;;;;2.72;1.40;;;8.10;79.90;;;;;;5095144;28;20044;-45
2021/01/19 01:07:49;;;;;;;2.80;1.55;;;8.00;79.80;;;;;;5094972;28;20055;-47
2021/01/19 01:10:16;;;;;;;2.67;1.58;;;8.00;79.80;;;;;;5095217;28;20055;-46
2021/01/19 01:12:45;;;;;;;1.60;1.50;;;8.00;79.80;;;;;;5095323;28;20055;-47
2021/01/19 01:15:12;;;;;;;1.50;1.40;;;8.00;79.80;;;;;;5094985;28;20059;-49
2021/01/19 01:17:39;;;;;;;2.03;1.30;;;8.00;79.80;;;;;;5095199;28;20161;-49
2021/01/19 01:20:14;;;;;;;1.55;1.23;;;8.10;79.90;;;;;;5094962;28;20485;-46
2021/01/19 01:22:44;;;;;;;1.77;1.60;;;8.10;79.90;;;;;;5094408;28;20498;-45
2021/01/19 01:25:11;;;;;;;1.77;1.40;;;8.00;79.80;;;;;;5094846;28;20113;-48
2021/01/19 01:27:38;;;;;;;1.90;1.50;;;8.10;79.90;;;;;;5095005;28;20154;-49
2021/01/19 01:30:04;;;;;;;1.83;1.65;;;8.00;79.80;;;;;;5094675;28;20048;-45
2021/01/19 01:32:30;;;;;;;2.92;1.60;;;8.00;79.90;;;;;;5085994;28;20045;-47
2021/01/19 01:34:56;;;;;;;1.70;1.45;;;8.00;79.80;;;;;;5074604;28;20551;-47
2021/01/19 01:37:22;;;;;;;1.98;1.55;;;8.00;79.80;;;;;;5073923;28;20067;-48
2021/01/19 01:39:48;;;;;;;2.30;1.88;;;8.10;79.90;;;;;;5074387;28;20086;-46
2021/01/19 01:42:21;;;;;;;2.10;1.60;;;8.10;79.90;;;;;;5074392;28;20052;-47
2021/01/19 01:44:48;;;;;;;1.58;1.42;;;8.10;80.00;;;;;;5074301;28;20102;-45
2021/01/19 01:47:27;;;;;;;2.20;1.80;;;8.10;80.60;;;;;;5074081;28;20052;-47
2021/01/19 01:49:52;;;;;;;1.98;1.60;;;8.10;79.90;;;;;;5073858;28;20094;-44
2021/01/19 01:52:21;;;;;;;2.13;1.52;;;8.10;79.90;;;;;;5074142;28;20490;-50
2021/01/19 01:54:49;;;;;;;2.28;1.80;;;8.10;80.00;;;;;;5074136;28;20223;-50
2021/01/19 01:57:19;;;;;;;2.08;1.50;;;8.00;79.90;;;;;;5073944;28;20040;-48
2021/01/19 01:59:49;;;;;;;2.78;1.80;;;8.10;80.60;;;;;;5073876;28;20049;-46
2021/01/19 02:02:15;;;;;;;2.78;1.90;;;8.10;80.00;;;;;;5074032;28;20048;-46
2021/01/19 02:04:41;;;;;;;2.40;1.90;;;8.10;80.00;;;;;;5073900;28;20044;-47
2021/01/19 02:07:27;;;;;;;2.67;1.77;;;8.00;79.90;;;;;;5073826;28;20052;-48
2021/01/19 02:10:37;;;;;;;3.70;1.85;;;8.10;80.00;;;;;;5073438;28;20048;-45
2021/01/19 02:13:33;;;;;;;2.67;2.20;;;8.10;80.00;;;;;;5073575;28;20048;-45
2021/01/19 02:16:10;;;;;;;2.17;1.52;;;8.10;80.00;;;;;;5073764;28;20049;-46
2021/01/19 02:19:11;;;;;;;2.33;1.55;;;8.10;80.00;;;;;;5073659;28;20040;-46
2021/01/19 02:22:09;;;;;;;2.00;1.73;;;8.10;80.00;;;;;;5072781;28;20101;-48
2021/01/19 02:25:12;;;;;;;2.30;1.80;;;8.10;80.00;;;;;;5072851;28;20414;-46
2021/01/19 02:27:50;;;;;;;3.33;1.80;;;8.10;80.00;;;;;;5073249;28;20496;-45
2021/01/19 02:30:32;;;;;;;2.17;1.80;;;8.00;79.90;;;;;;5073370;28;20045;-44
2021/01/19 02:33:17;;;;;;;2.13;1.77;;;8.10;80.00;;;;;;5085883;28;20044;-45
2021/01/19 02:36:07;;;;;;;2.15;1.95;;;8.10;80.00;;;;;;5093698;28;20126;-45
2021/01/19 02:38:52;;;;;;;2.00;1.80;;;8.10;80.00;;;;;;5093339;28;20411;-44
2021/01/19 02:41:20;;;;;;;2.13;1.60;;;8.10;80.00;;;;;;5093547;28;20055;-43
2021/01/19 02:44:09;;;;;;;3.20;1.90;;;8.10;80.00;;;;;;5093391;28;20074;-46
2021/01/19 02:46:35;;;;;;;2.60;1.95;;;8.10;80.70;;;;;;5092554;28;20066;-46
2021/01/19 02:49:01;;;;;;;2.40;2.08;;;8.10;80.10;;;;;;5090885;28;20055;-45
2021/01/19 02:51:28;;;;;;;2.05;1.60;;;8.10;80.10;;;;;;5093244;28;20048;-45
2021/01/19 02:53:55;;;;;;;2.65;1.80;;;8.10;80.00;;;;;;5093156;28;20127;-44
2021/01/19 02:56:40;;;;;;;3.55;1.90;;;8.10;80.10;;;;;;5093059;28;20044;-47
2021/01/19 02:59:17;;;;;;;3.95;2.15;;;8.10;80.10;;;;;;5093060;28;20476;-45
2021/01/19 03:02:07;;;;;;;2.75;2.17;;;8.10;80.10;;;;;;5093338;28;20043;-47
2021/01/19 03:04:33;;;;;;;2.40;1.80;;;8.10;80.10;;;;;;5093400;28;20384;-45
2021/01/19 03:07:04;;;;;;;2.75;1.92;;;8.10;80.10;;;;;;5092871;28;20055;-48
2021/01/19 03:09:34;;;;;;;2.38;1.80;;;8.10;80.10;;;;;;5092816;28;20074;-50
2021/01/19 03:12:00;;;;;;;3.55;2.20;;;8.10;80.20;;;;;;5092856;28;20123;-47
2021/01/19 03:14:26;;;;;;;2.33;1.92;;;8.10;80.20;;;;;;5093198;28;20090;-45
2021/01/19 03:17:01;;;;;;;2.53;1.88;;;8.10;80.20;;;;;;5093018;28;20488;-45
2021/01/19 03:19:29;;;;;;;3.53;2.10;;;8.10;80.10;;;;;;5092959;28;20493;-45
2021/01/19 03:21:54;;;;;;;2.60;1.90;;;8.10;80.20;;;;;;5093017;28;20044;-46
2021/01/19 03:24:20;;;;;;;2.10;1.80;;;8.10;80.20;;;;;;5074695;28;20101;-45
2021/01/19 03:26:46;;;;;;;2.78;2.10;;;8.10;80.20;;;;;;5092685;28;20059;-45
2021/01/19 03:29:11;;;;;;;2.30;2.10;;;8.10;80.20;;;;;;5093044;28;20466;-45
2021/01/19 03:31:37;;;;;;;4.38;2.47;;;8.10;80.20;;;;;;5091238;28;20139;-44
2021/01/19 03:34:03;;;;;;;2.03;1.85;;;8.10;80.20;;;;;;5076441;28;20159;-45
2021/01/19 03:36:28;;;;;;;2.50;1.98;;;8.10;80.20;;;;;;5076528;28;20048;-42
2021/01/19 03:38:54;;;;;;;3.00;1.70;;;8.10;80.20;;;;;;5076696;28;20055;-48
2021/01/19 03:41:20;;;;;;;3.53;2.20;;;8.10;80.20;;;;;;5076449;28;20439;-45
2021/01/19 03:43:46;;;;;;;2.58;2.00;;;8.10;80.30;;;;;;5076400;28;20048;-44
2021/01/19 03:46:11;;;;;;;3.65;2.17;;;8.10;80.30;;;;;;5076485;28;20049;-45
2021/01/19 03:48:37;;;;;;;3.03;2.00;;;8.10;80.30;;;;;;5076137;28;20093;-45
2021/01/19 03:51:03;;;;;;;2.85;2.10;;;8.10;80.20;;;;;;5076352;28;20049;-49
2021/01/19 03:53:29;;;;;;;2.10;1.90;;;8.10;80.30;;;;;;5076317;28;20093;-47
2021/01/19 03:55:54;;;;;;;2.95;2.40;;;8.10;80.30;;;;;;5076207;28;20040;-47
2021/01/19 03:58:20;;;;;;;2.30;1.88;;;8.10;80.30;;;;;;5076015;28;20045;-45
2021/01/19 04:00:46;;;;;;;3.00;1.98;;;8.10;80.30;;;;;;5076332;28;20109;-45
2021/01/19 04:03:11;;;;;;;2.95;2.00;;;8.10;80.30;;;;;;5076033;28;20121;-45
2021/01/19 04:05:37;;;;;;;1.70;1.60;;;8.10;80.30;;;;;;5075993;28;20059;-46
2021/01/19 04:08:03;;;;;;;3.10;2.15;;;8.10;80.30;;;;;;5076321;28;20127;-45
2021/01/19 04:10:28;;;;;;;2.05;1.80;;;8.10;80.30;;;;;;5076026;28;20369;-49
2021/01/19 04:12:54;;;;;;;2.10;1.70;;;8.10;80.30;;;;;;5075570;28;20041;-50
2021/01/19 04:15:20;;;;;;;2.13;1.92;;;8.10;80.30;;;;;;5075865;28;20055;-45
2021/01/19 04:17:45;;;;;;;2.10;1.90;;;8.10;80.30;;;;;;5075774;28;20504;-44
2021/01/19 04:20:11;;;;;;;2.22;1.90;;;8.10;80.30;;;;;;5075941;28;20040;-46
2021/01/19 04:22:37;;;;;;;3.55;1.88;;;8.10;80.30;;;;;;5075820;28;20076;-45
2021/01/19 04:25:05;;;;;;;2.30;1.90;;;8.10;80.40;;;;;;5075743;28;20083;-45
2021/01/19 04:27:31;;;;;;;2.28;1.95;;;8.10;80.40;;;;;;5075376;28;20052;-45
2021/01/19 04:29:56;;;;;;;2.28;2.03;;;8.10;80.40;;;;;;5075877;28;20071;-44
2021/01/19 04:32:22;;;;;;;2.03;1.83;;;8.10;80.40;;;;;;5083268;28;20059;-47
2021/01/19 04:34:48;;;;;;;2.83;1.88;;;8.10;80.40;;;;;;5095784;28;20051;-52
2021/01/19 04:37:13;;;;;;;1.85;1.65;;;8.10;80.50;;;;;;5095795;28;20050;-47
2021/01/19 04:39:40;;;;;;;2.10;1.90;;;8.10;80.40;;;;;;5095714;28;20040;-45
2021/01/19 04:42:05;;;;;;;2.00;1.77;;;8.10;80.40;;;;;;5095636;28;20488;-45
2021/01/19 04:44:31;;;;;;;1.65;1.55;;;8.10;80.50;;;;;;5095360;28;20503;-46
2021/01/19 04:46:58;;;;;;;1.70;1.60;;;8.10;80.50;;;;;;5095426;28;20489;-48
2021/01/19 04:49:25;;;;;;;2.42;1.73;;;8.10;80.50;;;;;;5095460;28;20056;-47
2021/01/19 04:51:51;;;;;;;1.80;1.60;;;8.10;80.50;;;;;;5095498;28;20056;-47
2021/01/19 04:54:20;;;;;;;2.20;2.00;;;8.10;80.50;;;;;;5095479;28;20071;-49
2021/01/19 04:56:53;;;;;;;2.55;1.63;;;8.10;80.50;;;;;;5095658;28;20048;-46
2021/01/19 04:59:22;;;;;;;1.80;1.70;;;8.10;80.50;;;;;;5095102;28;20432;-48
2021/01/19 05:02:10;;;;;;;1.92;1.73;;;8.10;80.50;;;;;;5095438;28;20055;-47
2021/01/19 05:04:47;;;;;;;1.88;1.67;;;8.10;80.50;;;;;;5095270;28;20052;-46
2021/01/19 05:07:33;;;;;;;1.95;1.70;;;8.10;80.50;;;;;;5095136;28;20054;-50
2021/01/19 05:10:12;;;;;;;1.90;1.60;;;8.10;80.50;;;;;;5095415;28;20044;-48
2021/01/19 05:12:44;;;;;;;3.33;2.33;;;8.10;80.50;;;;;;5094930;28;20144;-49
2021/01/19 05:15:12;;;;;;;1.55;1.40;;;8.10;80.50;;;;;;5095125;28;20448;-49
2021/01/19 05:17:43;;;;;;;2.65;1.80;;;8.20;80.60;;;;;;5094915;28;20048;-44
2021/01/19 05:20:11;;;;;;;3.22;1.92;;;8.10;80.60;;;;;;5094895;28;20123;-45
2021/01/19 05:22:37;;;;;;;1.73;1.63;;;8.10;80.60;;;;;;5095046;28;20126;-48
2021/01/19 05:25:04;;;;;;;1.98;1.60;;;8.10;80.50;;;;;;5094954;28;20536;-49
2021/01/19 05:27:30;;;;;;;1.65;1.52;;;8.10;80.60;;;;;;5094669;28;20071;-47
2021/01/19 05:30:14;;;;;;;1.50;1.40;;;8.20;80.60;;;;;;5094587;28;20071;-45
2021/01/19 05:32:43;;;;;;;2.10;1.60;;;8.20;80.60;;;;;;5094588;28;20048;-46
2021/01/19 05:35:20;;;;;;;1.92;1.80;;;8.10;80.60;;;;;;5094739;28;20114;-46
2021/01/19 05:37:59;;;;;;;1.60;1.50;;;8.20;80.60;;;;;;5094699;28;20093;-45
2021/01/19 05:40:26;;;;;;;2.58;1.55;;;8.20;80.60;;;;;;5094618;28;20130;-47
2021/01/19 05:42:53;;;;;;;1.45;1.35;;;8.20;80.60;;;;;;5094331;28;20109;-47
2021/01/19 05:45:19;;;;;;;1.80;1.60;;;8.20;80.60;;;;;;5093982;28;20044;-45
2021/01/19 05:47:46;;;;;;;1.55;1.45;;;8.20;80.60;;;;;;5094636;28;20048;-45
2021/01/19 05:50:13;;;;;;;2.28;1.33;;;8.20;80.60;;;;;;5094421;28;20052;-47
2021/01/19 05:52:39;;;;;;;1.50;1.40;;;8.20;80.60;;;;;;5094421;28;20063;-45
2021/01/19 05:55:05;;;;;;;1.70;1.60;;;8.20;80.60;;;;;;5093311;28;20113;-45
2021/01/19 05:57:31;;;;;;;2.58;1.52;;;8.20;80.60;;;;;;5094188;28;20044;-49
2021/01/19 06:00:03;;;;;;;1.70;1.60;;;8.20;80.60;;;;;;5093872;28;20263;-47
2021/01/19 06:02:39;;;;;;;2.60;1.65;;;8.20;80.70;;;;;;5094384;28;20081;-46
2021/01/19 06:05:15;;;;;;;2.45;1.42;;;8.20;80.60;;;;;;5094175;28;20051;-49
2021/01/19 06:07:44;;;;;;;1.55;1.30;;;8.20;80.60;;;;;;5093992;28;20062;-48
2021/01/19 06:10:12;;;;;;;2.33;1.80;;;8.20;80.60;;;;;;5093902;28;20093;-48
2021/01/19 06:12:38;;;;;;;1.60;1.50;;;8.20;80.60;;;;;;5093907;28;20048;-44
2021/01/19 06:15:06;;;;;;;1.60;1.50;;;8.20;80.60;;;;;;5093822;28;20100;-47
2021/01/19 06:17:31;;;;;;;1.95;1.40;;;8.20;81.30;;;;;;5093765;28;20040;-46
2021/01/19 06:19:58;;;;;;;1.70;1.40;;;8.20;80.60;;;;;;5093759;28;20052;-48
2021/01/19 06:22:26;;;;;;;1.30;1.20;;;8.20;80.60;;;;;;5093811;28;20048;-45
2021/01/19 06:24:57;;;;;;;1.45;1.35;;;8.20;80.60;;;;;;5093696;28;20040;-44
2021/01/19 06:27:22;;;;;;;1.55;1.33;;;8.20;80.60;;;;;;5093537;28;20050;-47
2021/01/19 06:29:58;;;;;;;1.65;1.55;;;8.20;80.60;;;;;;5093535;28;20055;-44
2021/01/19 06:32:24;;;;;;;1.70;1.48;;;8.20;80.60;;;;;;5093669;28;20111;-47
2021/01/19 06:34:50;;;;;;;1.58;1.30;;;8.20;80.70;;;;;;5093597;28;20078;-50
2021/01/19 06:37:27;;;;;;;1.90;1.35;;;8.20;80.70;;;;;;5093284;28;20071;-45
2021/01/19 06:39:57;;;;;;;1.40;1.30;;;8.20;80.70;;;;;;5093245;28;20099;-47
2021/01/19 06:42:32;;;;;;;1.77;1.35;;;8.20;80.70;;;;;;5093381;28;20484;-45
2021/01/19 06:45:20;;;;;;;1.88;1.48;;;8.20;80.70;;;;;;5093140;28;20048;-45
2021/01/19 06:47:51;;;;;;;1.40;1.30;;;8.20;80.70;;;;;;5093321;28;20052;-50
2021/01/19 06:50:23;;;;;;;1.60;1.40;;;8.20;80.70;;;;;;5093088;28;20095;-47
2021/01/19 06:53:14;;;;;;;1.30;1.17;;;8.20;80.70;;;;;;5093069;28;20044;-48
2021/01/19 06:55:58;;;;;;;2.17;1.60;;;8.20;80.80;;;;;;5079294;28;20062;-45
2021/01/19 06:58:29;;;;;;;1.40;1.30;;;8.20;80.80;;;;;;5093243;28;20044;-48
2021/01/19 07:01:00;;;;;;;1.83;1.40;;;8.20;80.90;;;;;;5092798;28;20048;-45
2021/01/19 07:03:26;;;;;;;2.25;1.98;;;8.20;80.80;;;;;;5093209;28;20048;-49
2021/01/19 07:05:54;;;;;;;1.38;1.27;;;8.20;80.80;;;;;;5092655;28;20047;-45
2021/01/19 07:08:20;;;;;;;1.33;1.23;;;8.20;80.90;;;;;;5093029;28;20046;-45
2021/01/19 07:11:05;;;;;;;1.38;1.27;;;8.20;80.90;;;;;;5093068;28;20471;-44
2021/01/19 07:13:37;;;;;;;1.38;1.27;;;8.20;81.60;;;;;;5092817;28;20044;-48
2021/01/19 07:16:05;;;;;;;1.23;1.13;;;8.20;81.00;;;;;;5092776;28;20052;-45
2021/01/19 07:18:44;;;;;;;4.13;1.55;;;8.20;81.00;;;;;;5092869;28;20040;-46
2021/01/19 07:21:14;;;;;;;1.50;1.20;;;8.20;81.00;;;;;;5092700;28;20047;-44
2021/01/19 07:23:45;;;;;;;1.80;1.50;;;8.20;81.10;;;;;;5092784;28;20048;-45
2021/01/19 07:26:15;;;;;;;1.40;1.30;;;8.20;81.10;;;;;;5092550;28;20485;-49
2021/01/19 07:28:41;;;;;;;1.40;1.30;;;8.20;81.10;;;;;;5092972;28;20094;-46
2021/01/19 07:31:07;;;;;;;1.33;1.23;;;8.20;81.10;;;;;;5092611;28;20052;-47
2021/01/19 07:33:34;;;;;;;1.20;1.10;;;8.20;81.10;;;;;;5092607;28;20048;-47
2021/01/19 07:36:01;;;;;;;1.50;1.20;;;8.20;81.10;;;;;;5092771;28;20096;-51
2021/01/19 07:38:26;;;;;;;1.20;1.08;;;8.20;81.10;;;;;;5092764;28;20071;-45
2021/01/19 07:40:52;;;;;;;1.35;1.20;;;8.20;81.10;;;;;;5092481;28;20071;-46
2021/01/19 07:43:19;;;;;;;1.67;1.25;;;8.20;81.10;;;;;;5092850;28;20060;-44
2021/01/19 07:45:55;;;;;;;1.30;1.20;;;8.20;81.10;;;;;;5092677;28;20052;-44
2021/01/19 07:48:32;;;;;;;1.40;1.30;;;8.20;81.10;;;;;;5092279;28;20048;-46
2021/01/19 07:51:14;;;;;;;1.45;1.30;;;8.20;81.10;;;;;;5092466;28;20104;-45
2021/01/19 07:53:54;;;;;;;1.10;1.10;;;8.20;81.10;;;;;;5091744;28;20140;-45
2021/01/19 07:56:26;;;;;;;1.17;1.10;;;8.20;81.10;;;;;;5091819;28;20047;-44
2021/01/19 07:58:53;;;;;;;1.20;1.10;;;8.20;81.10;;;;;;5091688;28;20059;-44
2021/01/19 08:01:27;;;;;;;1.33;1.20;;;8.20;81.10;;;;;;5091388;28;20443;-44
2021/01/19 08:03:54;;;;;;;0.88;0.88;;;8.20;81.10;;;;;;5091141;28;20503;-50
2021/01/19 08:06:32;;;;;;;1.40;1.27;;;8.20;81.10;;;;;;5092121;28;20104;-49
2021/01/19 08:09:19;;;;;;;0.90;0.88;;;8.20;81.10;;;;;;5092546;28;20093;-46
2021/01/19 08:11:45;;;;;;;1.30;1.08;;;8.20;81.10;;;;;;5092163;28;20052;-45
2021/01/19 08:14:11;;;;;;;1.48;1.20;;;8.20;81.10;;;;;;5092352;28;20075;-45
2021/01/19 08:16:41;;;;;;;2.38;1.30;;;8.20;81.10;;;;;;5092029;28;20154;-44
2021/01/19 08:19:16;;;;;;;2.17;1.23;;;8.20;81.10;;;;;;5093993;28;20062;-45
2021/01/19 08:21:50;;;;;;;1.25;0.95;;;8.20;81.00;;;;;;5096169;28;20040;-47
2021/01/19 08:24:19;;;;;;;1.13;1.02;;;8.20;81.00;;;;;;5095986;28;20048;-50
2021/01/19 08:26:45;;;;;;;1.42;1.10;;;8.20;81.00;;;;;;5095884;28;20056;-51
2021/01/19 08:29:11;;;;;;;1.40;1.30;;;8.20;81.00;;;;;;5095793;28;20488;-42
2021/01/19 08:31:37;;;;;;;2.40;2.05;;;8.20;81.00;;;;;;5095983;28;20056;-44
2021/01/19 08:34:04;;;;;;;2.78;1.80;;;8.20;81.20;;;;;;5095650;28;20082;-44
2021/01/19 08:36:31;;;;;;;3.00;2.00;;;8.10;81.20;;;;;;5095919;28;20127;-45
2021/01/19 08:38:59;;;;;;;2.30;1.95;;;8.10;81.20;;;;;;5095854;28;20565;-48
2021/01/19 08:41:26;;;;;;;3.28;1.80;;;8.10;81.30;;;;;;5095770;28;20059;-47
2021/01/19 08:43:53;;;;;;;1.90;1.70;;;8.10;81.30;;;;;;5095439;28;20059;-49
2021/01/19 08:46:19;;;;;;;2.63;1.88;;;8.10;81.40;;;;;;5086659;28;20048;-43
2021/01/19 08:48:44;;;;;;;2.20;2.00;;;8.10;81.40;;;;;;5083284;28;20101;-46
2021/01/19 08:51:24;;;;;;;2.30;2.10;;;8.20;81.50;;;;;;5075019;28;20152;-43
2021/01/19 08:53:51;;;;;;;2.42;2.00;;;8.20;81.60;;;;;;5074444;28;20075;-41
2021/01/19 08:56:18;;;;;;;2.38;2.15;;;8.20;81.50;;;;;;5074182;28;20493;-41
2021/01/19 08:58:43;;;;;;;1.80;1.70;;;8.10;81.50;;;;;;5085819;28;20061;-42
2021/01/19 09:01:09;;;;;;;3.00;1.70;;;8.20;81.50;;;;;;5094168;28;20134;-42
2021/01/19 09:03:35;;;;;;;1.65;1.55;;;8.20;81.50;;;;;;5093781;28;20420;-42
2021/01/19 09:06:05;;;;;;;2.78;1.60;;;8.20;81.50;;;;;;5094359;28;20070;-43
2021/01/19 09:08:32;;;;;;;1.67;1.50;;;8.30;81.50;;;;;;5094606;28;20041;-41
2021/01/19 09:11:06;;;;;;;1.67;1.58;;;8.20;81.40;;;;;;5094355;28;20048;-42
2021/01/19 09:13:37;;;;;;;3.25;2.30;;;8.20;81.40;;;;;;5093962;28;20405;-43
2021/01/19 09:16:03;;;;;;;1.77;1.67;;;8.20;81.60;;;;;;5094321;28;20048;-44
2021/01/19 09:18:29;;;;;;;3.08;2.00;;;8.10;81.60;;;;;;5093208;28;20447;-47
2021/01/19 09:21:09;;;;;;;2.38;2.17;;;8.10;81.60;;;;;;5071184;28;20056;-45
2021/01/19 09:23:36;;;;;;;2.80;1.88;;;8.20;81.70;;;;;;5068570;28;20053;-53
2021/01/19 09:26:07;;;;;;;1.80;1.65;;;8.10;81.60;;;;;;5068746;28;20454;-45
2021/01/19 09:28:37;;;;;;;2.10;1.90;;;8.20;81.80;;;;;;5068680;28;20061;-46
2021/01/19 09:31:15;;;;;;;1.83;1.63;;;8.20;81.80;;;;;;5075867;28;20131;-47
2021/01/19 09:33:42;;;;;;;2.15;1.95;;;8.20;81.80;;;;;;5074481;28;20052;-46
2021/01/19 09:36:10;;;;;;;2.10;1.90;;;8.20;81.80;;;;;;5050558;28;20142;-47
2021/01/19 09:38:37;;;;;;;2.55;2.00;;;8.20;81.90;;;;;;5068653;28;20052;-46
2021/01/19 09:41:04;;;;;;;2.67;1.60;;;8.20;82.50;;;;;;5068836;28;20465;-49
2021/01/19 09:43:30;;;;;;;1.80;1.70;;;8.20;81.90;;;;;;5068181;28;20118;-45
2021/01/19 09:46:02;;;;;;;1.85;1.75;;;8.20;81.90;;;;;;5068738;28;20049;-50
2021/01/19 09:48:30;;;;;;;1.60;1.50;;;8.20;82.00;;;;;;5068506;28;20087;-47
2021/01/19 09:51:00;;;;;;;1.80;1.70;;;8.20;82.00;;;;;;5068222;28;20040;-48
2021/01/19 09:53:29;;;;;;;1.75;1.65;;;8.20;82.00;;;;;;5050487;28;20052;-51
2021/01/19 09:55:57;;;;;;;2.10;1.90;;;8.20;82.00;;;;;;5068296;28;20119;-47
2021/01/19 09:58:24;;;;;;;1.85;1.55;;;8.20;82.00;;;;;;5068435;28;20166;-47
2021/01/19 10:00:50;;;;;;;1.65;1.52;;;8.20;82.00;;;;;;5067356;28;20044;-48
2021/01/19 10:03:19;;;;;;;1.67;1.58;;;8.20;82.10;;;;;;5068198;28;20612;-45
2021/01/19 10:05:56;;;;;;;2.50;1.63;;;8.20;82.00;;;;;;5067700;28;20499;-45
2021/01/19 10:08:25;;;;;;;1.90;1.70;;;8.20;82.10;;;;;;5068322;28;20059;-48
2021/01/19 10:10:51;;;;;;;1.50;1.40;;;8.20;82.10;;;;;;5068224;28;20572;-48
2021/01/19 10:13:27;;;;;;;1.73;1.50;;;8.20;82.10;;;;;;5067894;28;20476;-49
2021/01/19 10:16:01;;;;;;;1.60;1.50;;;8.20;82.10;;;;;;5067990;28;20049;-46
2021/01/19 10:18:28;;;;;;;1.50;1.40;;;8.20;82.10;;;;;;5070557;28;20408;-46
2021/01/19 10:20:53;;;;;;;1.83;1.58;;;8.30;82.20;;;;;;5077600;28;20094;-45
2021/01/19 10:23:26;;;;;;;1.65;1.55;;;8.30;82.20;;;;;;5068066;28;20409;-45
2021/01/19 10:26:12;;;;;;;2.17;1.50;;;8.30;82.20;;;;;;5067233;28;20056;-44
2021/01/19 10:28:45;;;;;;;1.45;1.35;;;8.20;82.20;;;;;;5067512;28;20433;-45
2021/01/19 10:31:22;;;;;;;1.30;1.20;;;8.30;82.20;;;;;;5068183;28;20049;-44
2021/01/19 10:34:03;;;;;;;1.67;1.48;;;8.30;82.20;;;;;;5067119;28;20523;-44
2021/01/19 10:36:31;;;;;;;1.30;1.20;;;8.20;82.10;;;;;;5067153;28;20049;-44
2021/01/19 10:39:07;;;;;;;1.30;1.20;;;8.30;82.20;;;;;;5067522;28;20059;-44
2021/01/19 10:41:34;;;;;;;1.50;1.38;;;8.30;82.20;;;;;;5066996;28;20044;-45
2021/01/19 10:44:00;;;;;;;1.60;1.30;;;8.20;82.20;;;;;;5067209;28;20068;-46
2021/01/19 10:46:28;;;;;;;1.60;1.50;;;8.30;82.20;;;;;;5074271;28;20064;-46
2021/01/19 10:49:01;;;;;;;1.33;1.13;;;8.30;82.20;;;;;;5091228;28;20109;-46
2021/01/19 10:51:27;;;;;;;2.05;1.85;;;8.30;82.20;;;;;;5090437;28;20238;-45
2021/01/19 10:54:16;;;;;;;1.45;1.30;;;8.30;82.20;;;;;;5090576;28;20042;-46
2021/01/19 10:56:46;;;;;;;1.85;1.50;;;8.30;82.20;;;;;;5090802;28;20043;-45
2021/01/19 10:59:12;;;;;;;1.20;1.10;;;8.30;82.30;;;;;;5090543;28;20040;-46
2021/01/19 11:01:39;;;;;;;1.23;1.13;;;8.30;82.20;;;;;;5092583;28;20512;-44
2021/01/19 11:04:07;;;;;;;1.40;1.30;;;8.30;82.30;;;;;;5092123;28;20435;-46
2021/01/19 11:06:35;;;;;;;1.42;1.33;;;8.30;82.20;;;;;;5092060;28;20458;-47
2021/01/19 11:09:04;;;;;;;1.15;1.05;;;8.30;82.20;;;;;;5096227;28;20047;-49
2021/01/19 11:11:30;;;;;;;1.35;1.25;;;8.30;82.30;;;;;;5113362;28;20048;-49
2021/01/19 11:14:04;;;;;;;1.40;1.30;;;8.30;82.20;;;;;;5113411;28;20123;-51
2021/01/19 11:16:32;;;;;;;1.23;1.13;;;8.30;82.20;;;;;;5113358;28;20047;-49
2021/01/19 11:19:02;;;;;;;1.50;1.40;;;8.30;82.20;;;;;;5113207;28;20050;-47
2021/01/19 11:21:33;;;;;;;1.38;1.25;;;8.30;82.20;;;;;;5112747;28;20504;-49
2021/01/19 11:24:00;;;;;;;1.20;1.10;;;8.30;82.20;;;;;;5113024;28;20051;-44
2021/01/19 11:26:27;;;;;;;1.15;1.05;;;8.30;82.30;;;;;;5113222;28;20051;-44
2021/01/19 11:28:53;;;;;;;1.58;1.48;;;8.30;82.30;;;;;;5113289;28;20047;-45
2021/01/19 11:31:30;;;;;;;1.48;1.38;;;8.30;82.20;;;;;;5113162;28;20039;-44
2021/01/19 11:34:04;;;;;;;1.42;1.30;;;8.30;82.30;;;;;;5112859;28;20059;-46
2021/01/19 11:36:35;;;;;;;1.13;1.10;;;8.30;82.20;;;;;;5112816;28;20039;-44
2021/01/19 11:39:02;;;;;;;1.45;1.35;;;8.30;82.20;;;;;;5112902;28;20043;-46
2021/01/19 11:41:28;;;;;;;1.42;1.33;;;8.40;82.30;;;;;;5112714;28;20043;-44
2021/01/19 11:43:55;;;;;;;2.03;1.17;;;8.30;82.20;;;;;;5113058;28;20043;-43
2021/01/19 11:46:23;;;;;;;1.35;1.25;;;8.30;82.20;;;;;;5112891;28;20054;-44
2021/01/19 11:48:51;;;;;;;1.30;1.20;;;8.30;82.20;;;;;;5112702;28;20056;-45
2021/01/19 11:51:44;;;;;;;1.52;1.30;;;8.30;82.20;;;;;;5113256;28;20044;-44
2021/01/19 11:54:10;;;;;;;1.65;1.33;;;8.40;82.30;;;;;;5111141;28;20051;-46
2021/01/19 11:56:40;;;;;;;1.50;1.30;;;8.30;82.20;;;;;;5116948;28;20134;-44
2021/01/19 11:59:08;;;;;;;1.58;1.48;;;8.30;82.30;;;;;;5116732;28;20048;-42
2021/01/19 12:01:34;;;;;;;1.30;1.20;;;8.40;82.30;;;;;;5098121;28;20134;-47
2021/01/19 12:04:00;;;;;;;1.00;1.00;;;8.40;82.20;;;;;;5116995;28;20078;-44
2021/01/19 12:06:26;;;;;;;1.30;1.20;;;8.40;82.20;;;;;;5116636;28;20071;-44
2021/01/19 12:08:52;;;;;;;1.40;1.30;;;8.40;82.20;;;;;;5116382;28;20050;-44
2021/01/19 12:11:19;;;;;;;1.30;1.20;;;8.40;82.20;;;;;;5111084;28;20078;-45
2021/01/19 12:13:46;;;;;;;1.30;1.20;;;8.40;82.20;;;;;;5085039;28;20064;-45
2021/01/19 12:16:18;;;;;;;1.40;1.30;;;8.40;82.90;;;;;;5085911;28;20044;-44
2021/01/19 12:18:46;;;;;;;1.30;1.20;;;8.40;82.20;;;;;;5086504;28;20045;-45
2021/01/19 12:21:13;;;;;;;1.40;1.30;;;8.40;82.20;;;;;;5084756;28;20055;-43
2021/01/19 12:23:39;;;;;;;1.13;1.02;;;8.40;82.20;;;;;;5085031;28;20088;-44
2021/01/19 12:26:04;;;;;;;1.88;1.27;;;8.40;82.20;;;;;;5086309;28;20128;-46
2021/01/19 12:28:30;;;;;;;1.02;1.00;;;8.40;82.20;;;;;;5084095;28;20048;-44
2021/01/19 12:30:56;;;;;;;1.80;1.10;;;8.40;82.20;;;;;;5085479;28;20169;-44
2021/01/19 12:33:22;;;;;;;1.33;1.23;;;8.40;82.20;;;;;;5085572;28;20097;-46
2021/01/19 12:35:49;;;;;;;1.45;1.20;;;8.40;82.20;;;;;;5084198;28;20404;-43
2021/01/19 12:38:15;;;;;;;1.65;1.00;;;8.40;82.20;;;;;;5085592;28;20484;-49
2021/01/19 12:40:40;;;;;;;2.40;1.20;;;8.40;82.20;;;;;;5085413;28;20068;-48
2021/01/19 12:43:08;;;;;;;0.95;0.90;;;8.40;82.20;;;;;;5083657;28;20055;-45
2021/01/19 12:45:37;;;;;;;0.93;0.93;;;8.40;82.20;;;;;;5086054;28;20044;-48
2021/01/19 12:48:04;;;;;;;0.93;0.93;;;8.40;82.20;;;;;;5085689;28;20048;-49
2021/01/19 12:50:32;;;;;;;1.45;1.02;;;8.40;82.20;;;;;;5083509;28;20048;-48
2021/01/19 12:53:00;;;;;;;1.08;0.90;;;8.40;82.20;;;;;;5084670;28;20445;-46
2021/01/19 12:55:26;;;;;;;1.15;1.05;;;8.50;82.20;;;;;;5077010;28;20489;-46
2021/01/19 12:57:52;;;;;;;1.75;1.00;;;8.40;82.10;;;;;;5081522;28;20040;-42
2021/01/19 13:00:18;;;;;;;1.10;1.00;;;8.40;82.20;;;;;;5081482;28;20052;-44
2021/01/19 13:02:43;;;;;;;1.42;1.33;;;8.40;82.10;;;;;;5074761;28;20052;-47
2021/01/19 13:05:11;;;;;;;1.52;1.20;;;8.40;82.10;;;;;;5074636;28;20068;-44
2021/01/19 13:07:38;;;;;;;1.00;0.90;;;8.50;82.10;;;;;;5083033;28;20133;-43
2021/01/19 13:10:05;;;;;;;1.48;1.00;;;8.40;82.10;;;;;;5079319;28;20044;-42
2021/01/19 13:12:30;;;;;;;1.38;1.27;;;8.50;82.10;;;;;;5081916;28;20105;-43